Terminal Aerodrome Forecast
Issued by NWS

Current Version | Previous Version | Text Only | Print | Product List | Glossary Off
Versions: 1 2 3 4 5 6 7 8 9 10 11 12 13 14 15 16 17

000
FTUS44 KSJT 240400 AAB
TAFSOA
TAF AMD
KSOA 240431Z 2405/2424 18008KT P6SM BKN250
     FM241100 21007KT P6SM SCT020
      TEMPO 2411/2414 BKN020
     FM241530 34013G21KT P6SM SKC
     FM242355 36008KT P6SM SKC=

USA.gov is the U.S. government's official web portal to all federal, state and local government web resources and services.